Chicago, IL (60616)

1:15 PM CST on January 25, 2015 (GMT -0600)
U.S. Cellular Field | Change Station
CLOSE
Current Station
Personal Weather Station
Location: Chicago, IL
Elevation: 594 ft
Nearby Weather Stations

Elev 594 ft 41.83 °N, 87.64 °W | Updated 1 second ago

Snow
Snow
29.8 °F
Feels Like 20 °F
N
12.1
Wind Variable Wind from NE
Gusts 22.0 mph

Today
High -- | Low -- °F
--% Chance of Precip.
Yesterday
High -- | Low -- °F
Precip. -- in
7:09 AM 4:56 PM
Waxing Crescent, 35% visible
Pressure 29.83 in
Visibility 2.0 miles
Clouds Overcast 1000 ft
Windchill 20 °F
Dew Point 29 °F
Humidity 95%
Rainfall 0.07 in
Snow Depth Not available.
UV 1 out of 12
Pollen .10 out of 12
Air Quality Not available.
Flu Activity Not available.
METAR KMDW 251853Z 03018KT 2SM -SN BR OVC010 00/M02 A2980 RMK AO2 PK WND 03026/1843 SLP100 P0000 T00001017

More Conditions Fewer Conditions

Pressure 29.83 in
Visibility 2.0 miles
Clouds Overcast 1000 ft
Windchill 20 °F
Dew Point 29 °F
Humidity 95%
Rainfall 0.07 in
Snow Depth Not available.
UV 1 out of 12
Pollen .10 out of 12
Air Quality Not available.
Flu Activity Not available.
METAR KMDW 251853Z 03018KT 2SM -SN BR OVC010 00/M02 A2980 RMK AO2 PK WND 03026/1843 SLP100 P0000 T00001017

More Conditions Fewer Conditions

10-Day Weather Forecast

Almanac

Astronomy

Jan. 25, 2015 Rise Set
Actual Time
Civil Twilight
Nautical Twilight
Astronomical Twilight
Moon
Length of Visible Light
Length of Day
Tomorrow will be .
, % of the Moon is Illuminated

Today's Extremes

State Highs State Lows

Community

WunderPhotos

Upload Photos

1,790,026 photos uploaded!

WunderBlogs® & News

Nearby

Air Quality

  Air Quality AQ Index Pollutant
Not available.

Snow Depth

Station Depth Elevation

Earthquake Activity

City Distance Mag. Time & Date
Minimum magnitude displayed is 2.5.

Coastal Water Temperatures

Place Temperature

Nearby Weather Stations